createdAt,value
2018-04-06T00:00:27.586Z,74.20
2018-04-06T00:02:55.093Z,73.10
2018-04-06T00:05:22.576Z,73.40
2018-04-06T00:07:51.326Z,73.70
2018-04-06T00:10:18.824Z,74.00
2018-04-06T00:12:46.346Z,73.20
2018-04-06T00:15:13.838Z,73.30
2018-04-06T00:17:41.389Z,73.10
2018-04-06T00:20:08.929Z,72.80
2018-04-06T00:22:36.480Z,73.20
2018-04-06T00:25:03.979Z,73.10
2018-04-06T00:27:31.530Z,72.00
2018-04-06T00:29:59.030Z,71.60
2018-04-06T00:32:26.548Z,71.50
2018-04-06T00:34:54.076Z,71.80
2018-04-06T00:37:21.807Z,71.30
2018-04-06T00:39:49.350Z,71.30
2018-04-06T00:42:16.869Z,72.40
2018-04-06T00:44:44.431Z,72.50
2018-04-06T00:47:11.938Z,72.70
2018-04-06T00:49:40.222Z,73.30
2018-04-06T00:52:08.479Z,73.80
2018-04-06T00:54:36.005Z,73.70
2018-04-06T00:57:03.530Z,73.50
2018-04-06T00:59:32.578Z,73.70
2018-04-06T01:02:00.131Z,73.70
2018-04-06T01:04:28.415Z,73.70
2018-04-06T01:06:55.920Z,73.70
2018-04-06T01:09:23.452Z,73.90
2018-04-06T01:11:50.970Z,74.00
2018-04-06T01:14:18.514Z,74.60
2018-04-06T01:16:46.802Z,74.50
2018-04-06T01:19:15.100Z,74.50
2018-04-06T01:21:43.386Z,74.90
2018-04-06T01:24:11.682Z,74.80
2018-04-06T01:26:39.204Z,75.40
2018-04-06T01:29:06.731Z,75.00
2018-04-06T01:31:34.286Z,75.30
2018-04-06T01:34:02.572Z,75.50
2018-04-06T01:36:30.850Z,75.30
2018-04-06T01:38:58.373Z,75.20
2018-04-06T01:41:25.884Z,75.20
2018-04-06T01:43:53.418Z,75.40
2018-04-06T01:46:20.948Z,76.20
2018-04-06T01:48:49.331Z,75.20
2018-04-06T01:51:17.647Z,75.70
2018-04-06T01:53:45.142Z,75.50
2018-04-06T01:56:12.683Z,75.80
2018-04-06T01:58:40.972Z,76.40
2018-04-06T02:01:08.520Z,76.40
2018-04-06T02:03:36.068Z,76.40
2018-04-06T02:06:03.592Z,76.40
2018-04-06T02:08:31.106Z,76.50
2018-04-06T02:10:58.653Z,76.90
2018-04-06T02:13:26.176Z,77.10
2018-04-06T02:15:54.503Z,77.80
2018-04-06T02:18:22.043Z,77.80
2018-04-06T02:20:49.587Z,79.10
2018-04-06T02:23:17.111Z,80.10
2018-04-06T02:25:45.426Z,81.20
2018-04-06T02:28:12.930Z,81.20
2018-04-06T02:30:40.569Z,82.00
2018-04-06T02:33:08.086Z,82.30
2018-04-06T02:35:35.625Z,82.80
2018-04-06T02:38:03.135Z,83.40
2018-04-06T02:40:30.684Z,83.70
2018-04-06T02:42:58.184Z,83.90
2018-04-06T02:45:26.511Z,84.20
2018-04-06T02:47:54.058Z,84.20
2018-04-06T02:50:21.688Z,84.10
2018-04-06T02:52:49.195Z,84.90
2018-04-06T02:55:17.479Z,85.30
2018-04-06T02:57:45.802Z,85.50
2018-04-06T03:00:13.324Z,85.40
2018-04-06T03:02:40.868Z,85.60
2018-04-06T03:05:08.425Z,85.70
2018-04-06T03:07:35.968Z,86.50
2018-04-06T03:10:04.246Z,86.20
2018-04-06T03:12:31.767Z,86.10
2018-04-06T03:14:59.304Z,86.30
2018-04-06T03:17:26.874Z,86.40
2018-04-06T03:19:55.158Z,86.60
2018-04-06T03:22:23.485Z,86.70
2018-04-06T03:24:50.998Z,86.70
2018-04-06T03:27:18.588Z,86.80
2018-04-06T03:29:46.098Z,87.00
2018-04-06T03:32:13.637Z,86.80
2018-04-06T03:34:41.933Z,86.60
2018-04-06T03:37:10.236Z,86.80
2018-04-06T03:39:37.743Z,86.80
2018-04-06T03:42:05.266Z,87.10
2018-04-06T03:44:32.808Z,87.30
2018-04-06T03:47:00.343Z,87.10
2018-04-06T03:49:27.885Z,86.90
2018-04-06T03:51:55.438Z,87.00
2018-04-06T03:54:23.746Z,87.10
2018-04-06T03:56:52.061Z,87.50
2018-04-06T03:59:19.606Z,87.40
2018-04-06T04:01:47.153Z,87.40
2018-04-06T04:04:14.677Z,87.50
2018-04-06T04:06:42.227Z,87.20
2018-04-06T04:09:10.539Z,87.50
2018-04-06T04:11:38.040Z,87.40
2018-04-06T04:14:05.563Z,87.40
2018-04-06T04:16:33.058Z,87.40
2018-04-06T04:19:00.617Z,87.40
2018-04-06T04:21:28.114Z,87.70
2018-04-06T04:23:55.678Z,87.60
2018-04-06T04:26:23.239Z,87.40
2018-04-06T04:28:50.799Z,87.30
2018-04-06T04:31:18.322Z,87.20
2018-04-06T04:33:45.866Z,86.80
2018-04-06T04:36:13.375Z,86.70
2018-04-06T04:38:41.682Z,86.70
2018-04-06T04:41:10.097Z,86.50
2018-04-06T04:43:37.610Z,86.40
2018-04-06T04:46:05.148Z,86.50
2018-04-06T04:48:32.675Z,86.00
2018-04-06T04:51:00.194Z,85.80
2018-04-06T04:53:27.729Z,85.60
2018-04-06T04:55:56.039Z,85.50
2018-04-06T04:58:23.573Z,85.30
2018-04-06T05:00:51.860Z,84.30
2018-04-06T05:03:19.384Z,84.30
2018-04-06T05:05:46.894Z,83.70
2018-04-06T05:08:14.423Z,83.30
2018-04-06T05:10:41.918Z,82.90
2018-04-06T05:13:09.465Z,82.40
2018-04-06T05:15:36.991Z,80.20
2018-04-06T05:18:04.504Z,79.40
2018-04-06T05:20:32.053Z,79.00
2018-04-06T05:23:00.335Z,78.80
2018-04-06T05:25:27.865Z,78.70
2018-04-06T05:27:56.149Z,78.00
2018-04-06T05:30:23.722Z,78.00
2018-04-06T05:32:51.246Z,77.90
2018-04-06T05:35:18.807Z,77.80
2018-04-06T05:37:46.302Z,77.80
2018-04-06T05:40:13.847Z,77.80
2018-04-06T05:42:41.360Z,77.80
2018-04-06T05:45:08.882Z,77.80
2018-04-06T05:47:37.911Z,78.10
2018-04-06T05:50:06.212Z,77.80
2018-04-06T05:52:34.501Z,77.80
2018-04-06T05:55:02.825Z,77.80
2018-04-06T05:57:30.400Z,77.80
2018-04-06T05:59:58.011Z,77.80
2018-04-06T06:02:25.516Z,77.70
2018-04-06T06:04:53.033Z,77.40
2018-04-06T06:07:20.541Z,76.60
2018-04-06T06:09:48.838Z,75.90
2018-04-06T06:12:17.137Z,75.80
2018-04-06T06:14:44.662Z,75.80
2018-04-06T06:17:12.215Z,74.90
2018-04-06T06:19:39.754Z,74.60
2018-04-06T06:22:07.276Z,73.70
2018-04-06T06:24:34.787Z,73.00
2018-04-06T06:27:03.079Z,72.20
2018-04-06T06:29:30.610Z,72.20
2018-04-06T06:31:58.149Z,71.30
2018-04-06T06:34:25.678Z,71.00
2018-04-06T06:36:54.004Z,71.20
2018-04-06T06:39:21.527Z,71.00
2018-04-06T06:41:49.038Z,71.10
2018-04-06T06:44:16.561Z,71.20
2018-04-06T06:46:44.085Z,70.90
2018-04-06T06:49:11.606Z,70.70
2018-04-06T06:51:39.146Z,69.90
2018-04-06T06:54:06.685Z,70.00
2018-04-06T06:56:34.991Z,70.00
2018-04-06T06:59:02.503Z,70.00
2018-04-06T07:01:30.029Z,69.20
2018-04-06T07:03:57.555Z,69.10
2018-04-06T07:06:25.092Z,69.00
2018-04-06T07:08:52.613Z,68.20
2018-04-06T07:11:20.154Z,67.50
2018-04-06T07:13:47.699Z,67.80
2018-04-06T07:16:15.248Z,67.30
2018-04-06T07:18:42.759Z,67.10
2018-04-06T07:21:10.302Z,67.40
2018-04-06T07:23:37.818Z,67.60
2018-04-06T07:26:05.348Z,67.20
2018-04-06T07:28:32.866Z,66.70
2018-04-06T07:31:00.419Z,67.10
2018-04-06T07:33:27.914Z,66.30
2018-04-06T07:35:55.421Z,66.40
2018-04-06T07:38:23.723Z,67.10
2018-04-06T07:40:51.237Z,67.00
2018-04-06T07:43:18.765Z,67.00
2018-04-06T07:45:46.269Z,66.40
2018-04-06T07:48:13.795Z,65.60
2018-04-06T07:50:42.093Z,65.70
2018-04-06T07:53:10.371Z,65.80
2018-04-06T07:55:37.891Z,65.80
2018-04-06T07:58:05.420Z,65.30
2018-04-06T08:00:32.935Z,65.50
2018-04-06T08:03:00.475Z,64.60
2018-04-06T08:05:28.002Z,65.50
2018-04-06T08:07:55.537Z,63.80
2018-04-06T08:10:23.064Z,64.70
2018-04-06T08:12:51.395Z,62.10
2018-04-06T08:15:18.909Z,62.00
2018-04-06T08:17:47.229Z,61.20
2018-04-06T08:20:14.722Z,61.10
2018-04-06T08:22:42.280Z,60.60
2018-04-06T08:25:09.801Z,61.10
2018-04-06T08:27:37.344Z,61.10
2018-04-06T08:30:04.842Z,61.10
2018-04-06T08:32:33.889Z,59.70
2018-04-06T08:35:01.432Z,59.10
2018-04-06T08:37:28.957Z,59.20
2018-04-06T08:39:56.469Z,59.20
2018-04-06T08:42:24.027Z,59.70
2018-04-06T08:44:51.549Z,59.50
2018-04-06T08:50:03.648Z,57.50
2018-04-06T08:52:31.185Z,56.80
2018-04-06T08:54:58.690Z,56.50
2018-04-06T08:57:26.204Z,57.50
2018-04-06T08:59:54.501Z,56.50
2018-04-06T09:02:22.041Z,56.40
2018-04-06T09:04:49.571Z,57.50
2018-04-06T09:07:17.110Z,57.00
2018-04-06T09:09:45.395Z,56.20
2018-04-06T09:12:13.660Z,56.20
2018-04-06T09:14:41.223Z,56.20
2018-04-06T09:17:09.542Z,56.40
2018-04-06T09:19:37.071Z,56.40
2018-04-06T09:22:04.581Z,55.90
2018-04-06T09:24:32.878Z,55.80
2018-04-06T09:27:01.155Z,55.80
2018-04-06T09:29:29.441Z,55.00
2018-04-06T09:31:57.721Z,55.10
2018-04-06T09:34:25.248Z,54.90
2018-04-06T09:36:52.745Z,55.00
2018-04-06T09:39:20.262Z,54.50
2018-04-06T09:41:47.766Z,54.90
2018-04-06T09:44:15.299Z,54.30
2018-04-06T09:46:42.814Z,54.50
2018-04-06T09:49:10.339Z,54.10
2018-04-06T09:51:38.643Z,53.80
2018-04-06T09:54:06.190Z,53.80
2018-04-06T09:56:34.488Z,52.90
2018-04-06T09:59:02.084Z,52.80
2018-04-06T10:01:36.799Z,52.80
2018-04-06T10:04:05.025Z,52.80
2018-04-06T10:06:33.405Z,51.50
2018-04-06T10:09:00.916Z,51.40
2018-04-06T10:11:28.492Z,50.90
2018-04-06T10:13:56.115Z,50.50
2018-04-06T10:16:23.698Z,51.00
2018-04-06T10:18:51.330Z,51.20
2018-04-06T10:21:18.931Z,51.40
2018-04-06T10:23:46.491Z,51.50
2018-04-06T10:26:14.793Z,51.80
2018-04-06T10:28:42.315Z,51.70
2018-04-06T10:31:10.624Z,50.00
2018-04-06T10:33:38.112Z,50.00
2018-04-06T10:36:06.410Z,50.10
2018-04-06T10:38:34.684Z,49.70
2018-04-06T10:41:02.968Z,48.50
2018-04-06T10:43:30.471Z,48.40
2018-04-06T10:45:57.990Z,49.50
2018-04-06T10:48:25.511Z,49.30
2018-04-06T10:50:53.024Z,48.50
2018-04-06T10:53:20.549Z,48.50
2018-04-06T10:55:48.831Z,47.80
2018-04-06T10:58:17.138Z,47.60
2018-04-06T11:00:44.680Z,47.50
2018-04-06T11:03:12.968Z,48.00
2018-04-06T11:05:41.256Z,47.50
2018-04-06T11:08:08.755Z,47.50
2018-04-06T11:10:37.003Z,48.00
2018-04-06T11:13:04.597Z,48.00
2018-04-06T11:15:33.171Z,48.00
2018-04-06T11:18:00.768Z,48.10
2018-04-06T11:20:29.056Z,47.90
2018-04-06T11:22:56.617Z,47.90
2018-04-06T11:25:24.116Z,48.10
2018-04-06T11:27:51.724Z,47.50
2018-04-06T11:30:19.274Z,46.90
2018-04-06T11:32:46.797Z,46.20
2018-04-06T11:35:14.307Z,46.20
2018-04-06T11:37:41.843Z,46.70
2018-04-06T11:40:09.349Z,46.50
2018-04-06T11:42:36.859Z,46.00
2018-04-06T11:45:04.365Z,46.20
2018-04-06T11:47:32.650Z,45.50
2018-04-06T11:50:00.166Z,45.50
2018-04-06T11:52:27.686Z,46.00
2018-04-06T11:54:55.195Z,45.40
2018-04-06T11:57:22.714Z,46.00
2018-04-06T11:59:50.248Z,45.30
2018-04-06T12:02:17.772Z,44.50
2018-04-06T12:04:45.322Z,44.60
2018-04-06T12:07:13.016Z,44.90
2018-04-06T12:09:40.539Z,45.10
2018-04-06T12:12:08.093Z,45.10
2018-04-06T12:14:35.614Z,45.30
2018-04-06T12:17:03.139Z,45.30
2018-04-06T12:19:30.647Z,45.10
2018-04-06T12:21:58.209Z,45.20
2018-04-06T12:24:25.695Z,45.30
2018-04-06T12:26:53.195Z,44.60
2018-04-06T12:29:20.726Z,45.10
2018-04-06T12:31:48.218Z,45.20
2018-04-06T12:34:15.776Z,45.10
2018-04-06T12:36:43.315Z,45.00
2018-04-06T12:39:10.888Z,45.10
2018-04-06T12:41:38.394Z,45.10
2018-04-06T12:44:05.944Z,45.00
2018-04-06T12:46:33.456Z,45.30
2018-04-06T12:49:01.011Z,45.20
2018-04-06T12:51:28.524Z,45.30
2018-04-06T12:53:56.804Z,44.90
2018-04-06T12:56:24.315Z,44.80
2018-04-06T12:58:51.864Z,44.40
2018-04-06T13:01:20.214Z,44.30
2018-04-06T13:03:47.738Z,44.20
2018-04-06T13:06:15.288Z,43.80
2018-04-06T13:08:43.619Z,43.90
2018-04-06T13:11:11.120Z,43.90
2018-04-06T13:13:38.651Z,44.00
2018-04-06T13:16:06.150Z,43.70
2018-04-06T13:18:33.670Z,44.00
2018-04-06T13:21:01.956Z,43.40
2018-04-06T13:23:30.437Z,43.40
2018-04-06T13:25:57.932Z,43.50
2018-04-06T13:28:26.193Z,43.60
2018-04-06T13:30:53.714Z,43.60
2018-04-06T13:33:21.222Z,43.80
2018-04-06T13:35:48.743Z,43.60
2018-04-06T13:38:16.251Z,43.40
2018-04-06T13:40:43.764Z,43.90
2018-04-06T13:43:12.912Z,44.50
2018-04-06T13:45:40.442Z,44.50
2018-04-06T13:48:08.709Z,43.50
2018-04-06T13:50:36.221Z,43.40
2018-04-06T13:53:03.738Z,44.00
2018-04-06T13:55:31.264Z,43.70
2018-04-06T13:57:58.787Z,44.50
2018-04-06T14:00:26.311Z,44.00
2018-04-06T14:02:53.800Z,44.00
2018-04-06T14:05:21.304Z,44.30
2018-04-06T14:07:48.799Z,44.90
2018-04-06T14:10:16.323Z,45.10
2018-04-06T14:12:43.832Z,43.90
2018-04-06T14:15:11.373Z,44.20
2018-04-06T14:17:38.872Z,43.70
2018-04-06T14:20:06.408Z,43.70
2018-04-06T14:22:33.911Z,44.10
2018-04-06T14:25:01.421Z,44.30
2018-04-06T14:27:28.938Z,44.10
2018-04-06T14:29:57.229Z,44.20
2018-04-06T14:32:24.717Z,44.20
2018-04-06T14:34:52.224Z,44.50
2018-04-06T14:37:19.736Z,44.90
2018-04-06T14:39:47.243Z,44.50
2018-04-06T14:42:15.571Z,44.90
2018-04-06T14:44:43.115Z,44.80
2018-04-06T14:47:11.427Z,44.70
2018-04-06T14:49:39.242Z,44.60
2018-04-06T14:52:06.964Z,44.00
2018-04-06T14:54:34.480Z,44.30
2018-04-06T14:57:01.994Z,44.80
2018-04-06T14:59:30.270Z,44.10
2018-04-06T15:01:57.798Z,44.00
2018-04-06T15:04:25.301Z,44.60
2018-04-06T15:06:52.838Z,44.00
2018-04-06T15:09:20.342Z,44.80
2018-04-06T15:11:47.863Z,45.00
2018-04-06T15:14:15.367Z,44.40
2018-04-06T15:16:42.886Z,44.60
2018-04-06T15:19:11.166Z,44.50
2018-04-06T15:21:39.457Z,45.20
2018-04-06T15:24:07.739Z,45.00
2018-04-06T15:26:35.284Z,45.00
2018-04-06T15:29:02.860Z,45.60
2018-04-06T15:31:30.375Z,45.00
2018-04-06T15:33:57.879Z,44.90
2018-04-06T15:36:25.397Z,45.10
2018-04-06T15:38:53.702Z,44.60
2018-04-06T15:41:21.978Z,44.60
2018-04-06T15:43:50.274Z,44.90
2018-04-06T15:46:18.580Z,44.30
2018-04-06T15:48:46.135Z,44.40
2018-04-06T15:51:14.404Z,44.10
2018-04-06T15:53:42.713Z,44.20
2018-04-06T15:56:10.969Z,44.40
2018-04-06T15:58:38.480Z,44.40
2018-04-06T16:01:06.783Z,45.10
2018-04-06T16:03:34.306Z,45.00
2018-04-06T16:06:01.828Z,45.00
2018-04-06T16:08:29.348Z,45.00
2018-04-06T16:10:56.855Z,45.40
2018-04-06T16:13:25.150Z,45.30
2018-04-06T16:15:52.694Z,45.30
2018-04-06T16:18:20.237Z,45.40
2018-04-06T16:20:47.742Z,45.80
2018-04-06T16:23:15.267Z,45.80
2018-04-06T16:25:42.855Z,45.90
2018-04-06T16:28:10.358Z,46.00
2018-04-06T16:30:38.630Z,45.40
2018-04-06T16:33:06.155Z,45.80
2018-04-06T16:35:33.661Z,45.90
2018-04-06T16:38:01.179Z,45.90
2018-04-06T16:40:28.702Z,45.90
2018-04-06T16:42:56.233Z,45.80
2018-04-06T16:45:23.744Z,45.80
2018-04-06T16:47:51.281Z,45.80
2018-04-06T16:50:18.796Z,45.80
2018-04-06T16:52:47.076Z,46.10
2018-04-06T16:55:14.601Z,45.80
2018-04-06T16:57:42.871Z,46.70
2018-04-06T17:00:11.158Z,46.60
2018-04-06T17:02:38.660Z,46.60
2018-04-06T17:05:06.180Z,46.40
2018-04-06T17:07:33.696Z,47.50
2018-04-06T17:10:01.243Z,47.40
2018-04-06T17:12:28.779Z,47.10
2018-04-06T17:14:56.302Z,47.60
2018-04-06T17:17:24.571Z,47.30
2018-04-06T17:19:52.097Z,47.30
2018-04-06T17:22:19.634Z,47.30
2018-04-06T17:24:47.935Z,47.50
2018-04-06T17:27:15.462Z,47.50
2018-04-06T17:29:42.982Z,47.50
2018-04-06T17:32:10.550Z,47.90
2018-04-06T17:34:38.046Z,48.00
2018-04-06T17:37:05.550Z,49.00
2018-04-06T17:39:33.086Z,49.10
2018-04-06T17:42:00.587Z,48.50
2018-04-06T17:44:28.135Z,48.70
2018-04-06T17:46:55.659Z,49.00
2018-04-06T17:49:23.962Z,49.30
2018-04-06T17:51:51.470Z,49.20
2018-04-06T17:54:18.993Z,49.30
2018-04-06T17:56:47.261Z,49.80
2018-04-06T17:59:14.787Z,49.80
2018-04-06T18:01:42.291Z,50.40
2018-04-06T18:04:09.810Z,50.00
2018-04-06T18:06:37.339Z,50.20
2018-04-06T18:09:05.615Z,50.50
2018-04-06T18:11:33.126Z,50.50
2018-04-06T18:14:01.384Z,50.60
2018-04-06T18:16:28.927Z,50.70
2018-04-06T18:18:57.202Z,50.90
2018-04-06T18:21:24.754Z,50.90
2018-04-06T18:23:52.290Z,51.20
2018-04-06T18:26:19.846Z,51.40
2018-04-06T18:28:47.355Z,51.90
2018-04-06T18:31:15.675Z,51.70
2018-04-06T18:33:43.206Z,51.70
2018-04-06T18:36:11.539Z,51.80
2018-04-06T18:38:39.057Z,51.80
2018-04-06T18:41:06.581Z,51.70
2018-04-06T18:43:34.091Z,51.90
2018-04-06T18:46:03.115Z,52.20
2018-04-06T18:48:30.627Z,52.10
2018-04-06T18:50:58.184Z,52.40
2018-04-06T18:53:25.694Z,52.20
2018-04-06T18:55:53.214Z,52.50
2018-04-06T18:58:21.486Z,52.60
2018-04-06T19:00:49.010Z,52.50
2018-04-06T19:03:16.532Z,52.80
2018-04-06T19:05:44.068Z,52.90
2018-04-06T19:08:12.585Z,53.10
2018-04-06T19:10:41.060Z,53.30
2018-04-06T19:13:08.581Z,53.30
2018-04-06T19:15:36.875Z,53.60
2018-04-06T19:18:05.137Z,53.80
2018-04-06T19:20:32.695Z,53.80
2018-04-06T19:23:00.204Z,54.00
2018-04-06T19:25:28.496Z,54.20
2018-04-06T19:27:56.843Z,54.30
2018-04-06T19:30:24.377Z,54.40
2018-04-06T19:32:51.959Z,54.50
2018-04-06T19:35:19.459Z,54.40
2018-04-06T19:37:46.981Z,54.80
2018-04-06T19:40:14.486Z,55.40
2018-04-06T19:42:42.072Z,55.00
2018-04-06T19:45:09.596Z,55.10
2018-04-06T19:47:37.121Z,55.40
2018-04-06T19:50:04.632Z,55.70
2018-04-06T19:52:32.191Z,55.60
2018-04-06T19:55:00.622Z,55.90
2018-04-06T19:57:28.147Z,55.90
2018-04-06T19:59:56.421Z,56.30
2018-04-06T20:02:24.073Z,56.30
2018-04-06T20:04:51.574Z,56.60
2018-04-06T20:07:19.112Z,56.90
2018-04-06T20:09:46.619Z,57.00
2018-04-06T20:12:14.155Z,57.20
2018-04-06T20:14:41.665Z,57.50
2018-04-06T20:17:09.231Z,57.70
2018-04-06T20:19:36.720Z,57.70
2018-04-06T20:22:05.003Z,57.70
2018-04-06T20:24:32.557Z,57.60
2018-04-06T20:27:00.049Z,57.60
2018-04-06T20:29:28.315Z,58.30
2018-04-06T20:31:55.919Z,57.70
2018-04-06T20:34:25.212Z,58.00
2018-04-06T20:36:53.515Z,58.10
2018-04-06T20:39:21.832Z,58.40
2018-04-06T20:41:49.357Z,58.30
2018-04-06T20:44:16.956Z,59.50
2018-04-06T20:46:45.267Z,59.50
2018-04-06T20:49:12.788Z,59.50
2018-04-06T20:51:41.118Z,59.60
2018-04-06T20:54:08.632Z,59.90
2018-04-06T20:56:36.139Z,59.80
2018-04-06T20:59:03.662Z,59.80
2018-04-06T21:01:32.076Z,60.10
2018-04-06T21:03:59.590Z,59.90
2018-04-06T21:06:27.858Z,59.50
2018-04-06T21:08:55.361Z,59.50
2018-04-06T21:11:22.881Z,58.30
2018-04-06T21:13:50.425Z,59.30
2018-04-06T21:16:17.912Z,59.40
2018-04-06T21:18:45.431Z,59.80
2018-04-06T21:21:12.927Z,59.20
2018-04-06T21:23:40.475Z,59.20
2018-04-06T21:26:08.732Z,59.70
2018-04-06T21:28:36.262Z,59.70
2018-04-06T21:31:03.763Z,59.90
2018-04-06T21:33:31.284Z,59.90
2018-04-06T21:35:59.537Z,60.30
2018-04-06T21:38:27.065Z,60.20
2018-04-06T21:40:54.553Z,60.20
2018-04-06T21:43:22.109Z,60.40
2018-04-06T21:45:49.566Z,60.10
2018-04-06T21:48:17.103Z,60.50
2018-04-06T21:50:44.866Z,60.40
2018-04-06T21:53:13.260Z,60.20
2018-04-06T21:55:40.750Z,60.00
2018-04-06T21:58:09.067Z,60.10
2018-04-06T22:00:36.570Z,60.10
2018-04-06T22:03:04.072Z,60.30
2018-04-06T22:05:31.839Z,60.30
2018-04-06T22:08:00.411Z,60.50
2018-04-06T22:10:27.989Z,60.40
2018-04-06T22:12:55.495Z,60.40
2018-04-06T22:15:23.010Z,60.70
2018-04-06T22:17:50.514Z,60.80
2018-04-06T22:20:18.037Z,60.80
2018-04-06T22:22:45.534Z,60.80
2018-04-06T22:25:13.046Z,61.10
2018-04-06T22:27:40.582Z,61.20
2018-04-06T22:30:08.890Z,61.20
2018-04-06T22:32:36.381Z,61.10
2018-04-06T22:35:03.923Z,61.40
2018-04-06T22:37:31.427Z,61.30
2018-04-06T22:39:58.962Z,61.70
2018-04-06T22:42:26.495Z,61.80
2018-04-06T22:44:54.004Z,61.90
2018-04-06T22:47:22.732Z,61.80
2018-04-06T22:49:51.431Z,62.00
2018-04-06T22:52:19.400Z,61.90
2018-04-06T22:54:47.474Z,62.10
2018-04-06T22:57:16.157Z,62.10
2018-04-06T22:59:44.779Z,62.60
2018-04-06T23:02:13.312Z,62.30
2018-04-06T23:04:42.720Z,62.30
2018-04-06T23:07:11.378Z,62.40
2018-04-06T23:09:38.986Z,62.30
2018-04-06T23:12:07.369Z,62.30
2018-04-06T23:14:34.933Z,62.30
2018-04-06T23:17:02.430Z,62.40
2018-04-06T23:19:30.698Z,62.80
2018-04-06T23:21:58.247Z,62.80
2018-04-06T23:24:25.736Z,62.70
2018-04-06T23:26:53.256Z,62.90
2018-04-06T23:29:20.773Z,63.10
2018-04-06T23:31:48.315Z,63.30
2018-04-06T23:34:15.846Z,63.30
2018-04-06T23:36:44.208Z,63.50
2018-04-06T23:39:11.830Z,63.50
2018-04-06T23:41:39.401Z,63.50
2018-04-06T23:44:06.888Z,63.40
2018-04-06T23:46:34.389Z,63.40
2018-04-06T23:49:01.870Z,63.60
2018-04-06T23:51:29.397Z,63.70
2018-04-06T23:53:56.884Z,63.70
2018-04-06T23:56:24.422Z,63.90
2018-04-06T23:58:51.926Z,64.00
